Time;durP1;ratioP1;P1;durP2;ratioP2;P2;SDS_P1;SDS_P2;PMS_P1;PMS_P2;Temp;Humidity;BMP_temperature;BMP_pressure;BME280_temperature;BME280_humidity;BME280_pressure;Samples;Min_cycle;Max_cycle;Signal;HPM_P1;HPM_P2
2022/08/26 00:01:38;;;;;;;;;;;;;;;;;;4822328;29;20393;-46
2022/08/26 00:04:06;;;;;;;;;;;;;;;;;;4822525;29;20037;-48
2022/08/26 00:06:34;;;;;;;;;;;;;;;;;;4822601;29;20193;-49
2022/08/26 00:09:03;;;;;;;;;;;;;;;;;;4822362;29;19993;-46
2022/08/26 00:11:34;;;;;;;;;;;;;;;;;;4822859;29;19939;-45
2022/08/26 00:14:01;;;;;;;;;;;;;;;;;;4822909;29;20381;-48
2022/08/26 00:16:30;;;;;;;;;;;;;;;;;;4822589;29;19929;-47
2022/08/26 00:18:57;;;;;;;;;;;;;;;;;;4821217;29;20397;-44
2022/08/26 00:21:24;;;;;;;;;;;;;;;;;;4807785;29;19925;-49
2022/08/26 00:23:51;;;;;;;;;;;;;;;;;;4807220;29;19929;-46
2022/08/26 00:26:18;;;;;;;;;;;;;;;;;;4807403;29;19925;-46
2022/08/26 00:28:46;;;;;;;;;;;;;;;;;;4807495;29;19967;-45
2022/08/26 00:31:13;;;;;;;;;;;;;;;;;;4807690;29;19925;-44
2022/08/26 00:33:40;;;;;;;;;;;;;;;;;;4807336;29;19925;-42
2022/08/26 00:36:08;;;;;;;;;;;;;;;;;;4821114;29;19929;-43
2022/08/26 00:38:45;;;;;;;;;;;;;;;;;;4807326;29;19931;-45
2022/08/26 00:41:17;;;;;;;;;;;;;;;;;;4807428;29;20356;-43
2022/08/26 00:43:45;;;;;;;;;;;;;;;;;;4807036;29;19925;-43
2022/08/26 00:46:22;;;;;;;;;;;;;;;;;;4807226;29;19925;-49
2022/08/26 00:48:52;;;;;;;;;;;;;;;;;;4806634;29;20044;-48
2022/08/26 00:51:24;;;;;;;;;;;;;;;;;;4806903;29;19925;-43
2022/08/26 00:54:05;;;;;;;;;;;;;;;;;;4806630;29;20301;-47
2022/08/26 00:56:36;;;;;;;;;;;;;;;;;;4806872;29;19925;-48
2022/08/26 00:59:08;;;;;;;;;;;;;;;;;;4806428;29;19999;-44
2022/08/26 01:01:36;;;;;;;;;;;;;;;;;;4820741;29;20666;-43
2022/08/26 01:04:04;;;;;;;;;;;;;;;;;;4807064;29;20301;-47
2022/08/26 01:06:31;;;;;;;;;;;;;;;;;;4806490;29;19932;-44
2022/08/26 01:08:59;;;;;;;;;;;;;;;;;;4806560;29;19932;-44
2022/08/26 01:11:26;;;;;;;;;;;;;;;;;;4806798;29;20305;-43
2022/08/26 01:13:55;;;;;;;;;;;;;;;;;;4806788;29;19944;-43
2022/08/26 01:16:24;;;;;;;;;;;;;;;;;;4807272;29;19925;-46
2022/08/26 01:18:57;;;;;;;;;;;;;;;;;;4807252;29;19929;-48
2022/08/26 01:21:35;;;;;;;;;;;;;;;;;;4823767;29;19968;-44
2022/08/26 01:24:02;;;;;;;;;;;;;;;;;;4822972;29;19924;-47
2022/08/26 01:26:32;;;;;;;;;;;;;;;;;;4823291;29;20355;-49
2022/08/26 01:29:01;;;;;;;;;;;;;;;;;;4823145;29;19931;-44
2022/08/26 01:31:31;;;;;;;;;;;;;;;;;;4822972;29;19929;-45
2022/08/26 01:34:04;;;;;;;;;;;;;;;;;;4823492;29;19929;-47
2022/08/26 01:36:31;;;;;;;;;;;;;;;;;;4824527;29;19999;-47
2022/08/26 01:38:59;;;;;;;;;;;;;;;;;;4824454;29;20349;-44
2022/08/26 01:41:27;;;;;;;;;;;;;;;;;;4824662;29;19924;-47
2022/08/26 01:43:56;;;;;;;;;;;;;;;;;;4824282;29;20015;-44
2022/08/26 01:46:25;;;;;;;;;;;;;;;;;;4824319;29;20415;-45
2022/08/26 01:48:53;;;;;;;;;;;;;;;;;;4824376;29;19925;-44
2022/08/26 01:51:22;;;;;;;;;;;;;;;;;;4838208;29;19929;-46
2022/08/26 01:53:49;;;;;;;;;;;;;;;;;;4824147;29;20031;-45
2022/08/26 01:56:17;;;;;;;;;;;;;;;;;;4824457;29;19940;-47
2022/08/26 01:58:46;;;;;;;;;;;;;;;;;;4824432;29;20015;-45
2022/08/26 02:01:15;;;;;;;;;;;;;;;;;;4824246;29;19931;-47
2022/08/26 02:04:02;;;;;;;;;;;;;;;;;;4824179;29;19929;-46
2022/08/26 02:06:29;;;;;;;;;;;;;;;;;;4824160;29;20397;-45
2022/08/26 02:08:58;;;;;;;;;;;;;;;;;;4809272;29;19981;-45
2022/08/26 02:11:26;;;;;;;;;;;;;;;;;;4806066;29;19933;-43
2022/08/26 02:13:56;;;;;;;;;;;;;;;;;;4805593;29;20023;-44
2022/08/26 02:16:25;;;;;;;;;;;;;;;;;;4805943;29;20016;-43
2022/08/26 02:18:52;;;;;;;;;;;;;;;;;;4806310;29;19925;-44
2022/08/26 02:21:20;;;;;;;;;;;;;;;;;;4824139;29;19929;-44
2022/08/26 02:23:48;;;;;;;;;;;;;;;;;;4823988;29;19981;-47
2022/08/26 02:26:17;;;;;;;;;;;;;;;;;;4824070;29;20423;-44
2022/08/26 02:29:01;;;;;;;;;;;;;;;;;;4824029;29;19932;-44
2022/08/26 02:31:28;;;;;;;;;;;;;;;;;;4824065;29;19925;-42
2022/08/26 02:34:05;;;;;;;;;;;;;;;;;;4823749;29;19963;-43
2022/08/26 02:36:33;;;;;;;;;;;;;;;;;;4823921;29;19977;-43
2022/08/26 02:39:00;;;;;;;;;;;;;;;;;;4823763;29;19925;-45
2022/08/26 02:41:27;;;;;;;;;;;;;;;;;;4823796;29;20289;-43
2022/08/26 02:43:56;;;;;;;;;;;;;;;;;;4823253;29;20015;-42
2022/08/26 02:46:24;;;;;;;;;;;;;;;;;;4823702;29;19924;-43
2022/08/26 02:48:53;;;;;;;;;;;;;;;;;;4823539;29;19932;-43
2022/08/26 02:51:21;;;;;;;;;;;;;;;;;;4823883;29;20270;-45
2022/08/26 02:53:48;;;;;;;;;;;;;;;;;;4823462;29;19950;-43
2022/08/26 02:56:15;;;;;;;;;;;;;;;;;;4823731;29;20015;-44
2022/08/26 02:58:42;;;;;;;;;;;;;;;;;;4823717;29;19932;-46
2022/08/26 03:01:24;;;;;;;;;;;;;;;;;;4822986;29;20295;-43
2022/08/26 03:03:52;;;;;;;;;;;;;;;;;;4823504;29;19924;-43
2022/08/26 03:06:19;;;;;;;;;;;;;;;;;;4823115;29;19928;-43
2022/08/26 03:08:47;;;;;;;;;;;;;;;;;;4823511;29;19925;-43
2022/08/26 03:11:14;;;;;;;;;;;;;;;;;;4823320;29;19924;-43
2022/08/26 03:13:42;;;;;;;;;;;;;;;;;;4808795;29;20355;-43
2022/08/26 03:16:09;;;;;;;;;;;;;;;;;;4803557;29;19929;-46
2022/08/26 03:18:36;;;;;;;;;;;;;;;;;;4804383;29;19958;-43
2022/08/26 03:21:05;;;;;;;;;;;;;;;;;;4804758;29;19983;-45
2022/08/26 03:23:33;;;;;;;;;;;;;;;;;;4804952;29;20297;-43
2022/08/26 03:26:00;;;;;;;;;;;;;;;;;;4803644;29;19977;-44
2022/08/26 03:28:28;;;;;;;;;;;;;;;;;;4805343;29;20000;-44
2022/08/26 03:30:56;;;;;;;;;;;;;;;;;;4771097;29;19976;-42
2022/08/26 03:33:24;;;;;;;;;;;;;;;;;;4768862;30;19968;-43
2022/08/26 03:35:51;;;;;;;;;;;;;;;;;;4769091;29;19925;-46
2022/08/26 03:38:19;;;;;;;;;;;;;;;;;;4768980;29;19926;-50
2022/08/26 03:40:47;;;;;;;;;;;;;;;;;;4768897;30;19932;-43
2022/08/26 03:43:15;;;;;;;;;;;;;;;;;;4769342;29;19925;-45
2022/08/26 03:45:42;;;;;;;;;;;;;;;;;;4768943;30;19965;-44
2022/08/26 03:48:10;;;;;;;;;;;;;;;;;;4768945;29;20352;-43
2022/08/26 03:50:37;;;;;;;;;;;;;;;;;;4768944;30;20343;-46
2022/08/26 03:53:05;;;;;;;;;;;;;;;;;;4768658;30;20444;-44
2022/08/26 03:55:33;;;;;;;;;;;;;;;;;;4770934;30;19980;-45
2022/08/26 03:58:00;;;;;;;;;;;;;;;;;;4772251;29;19936;-46
2022/08/26 04:00:28;;;;;;;;;;;;;;;;;;4771565;30;19975;-43
2022/08/26 04:02:55;;;;;;;;;;;;;;;;;;4771715;30;20362;-43
2022/08/26 04:05:23;;;;;;;;;;;;;;;;;;4772146;30;19926;-46
2022/08/26 04:07:50;;;;;;;;;;;;;;;;;;4772153;30;19930;-44
2022/08/26 04:10:21;;;;;;;;;;;;;;;;;;4771737;30;19925;-44
2022/08/26 04:12:54;;;;;;;;;;;;;;;;;;4784768;30;19975;-45
2022/08/26 04:15:21;;;;;;;;;;;;;;;;;;4770773;30;19925;-45
2022/08/26 04:17:48;;;;;;;;;;;;;;;;;;4772095;29;20248;-46
2022/08/26 04:20:17;;;;;;;;;;;;;;;;;;4783098;30;19925;-44
2022/08/26 04:22:44;;;;;;;;;;;;;;;;;;4789822;30;19932;-44
2022/08/26 04:25:12;;;;;;;;;;;;;;;;;;4789628;29;20008;-44
2022/08/26 04:27:39;;;;;;;;;;;;;;;;;;4789707;29;20308;-44
2022/08/26 04:30:07;;;;;;;;;;;;;;;;;;4789637;29;20042;-43
2022/08/26 04:32:35;;;;;;;;;;;;;;;;;;4789583;29;19929;-43
2022/08/26 04:35:05;;;;;;;;;;;;;;;;;;4789346;29;19971;-46
2022/08/26 04:37:32;;;;;;;;;;;;;;;;;;4789411;29;19926;-44
2022/08/26 04:39:59;;;;;;;;;;;;;;;;;;4789161;29;20275;-43
2022/08/26 04:42:28;;;;;;;;;;;;;;;;;;4789703;29;20302;-46
2022/08/26 04:44:58;;;;;;;;;;;;;;;;;;4803202;29;19925;-44
2022/08/26 04:47:25;;;;;;;;;;;;;;;;;;4788839;29;19996;-45
2022/08/26 04:49:58;;;;;;;;;;;;;;;;;;4802828;29;19926;-44
2022/08/26 04:52:25;;;;;;;;;;;;;;;;;;4788739;29;19929;-43
2022/08/26 04:54:53;;;;;;;;;;;;;;;;;;4802552;29;20340;-44
2022/08/26 04:57:21;;;;;;;;;;;;;;;;;;4789414;29;20469;-44
2022/08/26 04:59:48;;;;;;;;;;;;;;;;;;4789104;30;19929;-44
2022/08/26 05:02:15;;;;;;;;;;;;;;;;;;4789383;30;19925;-45
2022/08/26 05:04:43;;;;;;;;;;;;;;;;;;4789442;30;19930;-43
2022/08/26 05:07:10;;;;;;;;;;;;;;;;;;4787985;29;19949;-45
2022/08/26 05:09:40;;;;;;;;;;;;;;;;;;4789159;29;19930;-42
2022/08/26 05:12:08;;;;;;;;;;;;;;;;;;4788489;29;19929;-43
2022/08/26 05:14:35;;;;;;;;;;;;;;;;;;4802683;29;19948;-45
2022/08/26 05:17:03;;;;;;;;;;;;;;;;;;4788820;30;20012;-43
2022/08/26 05:19:30;;;;;;;;;;;;;;;;;;4788786;30;19938;-43
2022/08/26 05:21:58;;;;;;;;;;;;;;;;;;4788791;29;19930;-43
2022/08/26 05:24:25;;;;;;;;;;;;;;;;;;4788560;29;19975;-43
2022/08/26 05:26:52;;;;;;;;;;;;;;;;;;4788309;29;19953;-42
2022/08/26 05:29:19;;;;;;;;;;;;;;;;;;4788364;29;20382;-51
2022/08/26 05:31:49;;;;;;;;;;;;;;;;;;4786986;30;19930;-43
2022/08/26 05:34:17;;;;;;;;;;;;;;;;;;4787150;29;20020;-43
2022/08/26 05:36:44;;;;;;;;;;;;;;;;;;4788426;29;19982;-45
2022/08/26 05:39:11;;;;;;;;;;;;;;;;;;4786082;29;19937;-46
2022/08/26 05:41:41;;;;;;;;;;;;;;;;;;4786801;29;19931;-44
2022/08/26 05:44:12;;;;;;;;;;;;;;;;;;4786521;29;19925;-44
2022/08/26 05:46:40;;;;;;;;;;;;;;;;;;4786451;29;19932;-44
2022/08/26 05:49:07;;;;;;;;;;;;;;;;;;4786518;29;19935;-46
2022/08/26 05:51:43;;;;;;;;;;;;;;;;;;4786269;29;19932;-43
2022/08/26 05:54:11;;;;;;;;;;;;;;;;;;4788047;29;19929;-44
2022/08/26 05:56:39;;;;;;;;;;;;;;;;;;4788219;29;19961;-44
2022/08/26 05:59:11;;;;;;;;;;;;;;;;;;4787679;29;19929;-43
2022/08/26 06:01:40;;;;;;;;;;;;;;;;;;4787754;29;20008;-50
2022/08/26 06:04:08;;;;;;;;;;;;;;;;;;4801950;29;20449;-42
2022/08/26 06:06:35;;;;;;;;;;;;;;;;;;4787824;29;20008;-43
2022/08/26 06:09:03;;;;;;;;;;;;;;;;;;4787730;29;19926;-46
2022/08/26 06:11:32;;;;;;;;;;;;;;;;;;4787469;29;20301;-44
2022/08/26 06:14:02;;;;;;;;;;;;;;;;;;4801350;29;20386;-43
2022/08/26 06:16:32;;;;;;;;;;;;;;;;;;4787644;29;19960;-45
2022/08/26 06:19:01;;;;;;;;;;;;;;;;;;4787097;29;19929;-45
2022/08/26 06:21:32;;;;;;;;;;;;;;;;;;4787845;29;20362;-44
2022/08/26 06:26:48;;;;;;;;;;;;;;;;;;4787614;29;20293;-46
2022/08/26 06:29:16;;;;;;;;;;;;;;;;;;4787806;29;19932;-47
2022/08/26 06:31:51;;;;;;;;;;;;;;;;;;4787174;29;20305;-45
2022/08/26 06:34:18;;;;;;;;;;;;;;;;;;4787349;29;19971;-45
2022/08/26 06:36:46;;;;;;;;;;;;;;;;;;4786876;29;19925;-44
2022/08/26 06:39:14;;;;;;;;;;;;;;;;;;4787283;29;19930;-45
2022/08/26 06:41:44;;;;;;;;;;;;;;;;;;4787314;29;19933;-44
2022/08/26 06:44:16;;;;;;;;;;;;;;;;;;4787681;29;20309;-45
2022/08/26 06:46:44;;;;;;;;;;;;;;;;;;4787248;29;19932;-44
2022/08/26 06:49:12;;;;;;;;;;;;;;;;;;4786795;29;20503;-44
2022/08/26 06:51:39;;;;;;;;;;;;;;;;;;4787330;29;20267;-45
2022/08/26 06:54:09;;;;;;;;;;;;;;;;;;4786914;30;19982;-45
2022/08/26 06:56:38;;;;;;;;;;;;;;;;;;4787043;29;20302;-44
2022/08/26 06:59:06;;;;;;;;;;;;;;;;;;4787080;29;19936;-44
2022/08/26 07:01:36;;;;;;;;;;;;;;;;;;4786823;29;20382;-44
2022/08/26 07:04:04;;;;;;;;;;;;;;;;;;4787203;29;19929;-44
2022/08/26 07:06:39;;;;;;;;;;;;;;;;;;4787184;29;19931;-43
2022/08/26 07:09:08;;;;;;;;;;;;;;;;;;4786843;30;20386;-46
2022/08/26 07:11:36;;;;;;;;;;;;;;;;;;4786896;29;19925;-45
2022/08/26 07:14:05;;;;;;;;;;;;;;;;;;4786269;30;19925;-45
2022/08/26 07:16:33;;;;;;;;;;;;;;;;;;4787098;29;20044;-46
2022/08/26 07:19:01;;;;;;;;;;;;;;;;;;4786727;29;20302;-45
2022/08/26 07:21:29;;;;;;;;;;;;;;;;;;4786736;29;19925;-44
2022/08/26 07:23:56;;;;;;;;;;;;;;;;;;4786784;30;19935;-44
2022/08/26 07:26:28;;;;;;;;;;;;;;;;;;4787110;30;19932;-45
2022/08/26 07:28:56;;;;;;;;;;;;;;;;;;4787772;29;19967;-44
2022/08/26 07:31:25;;;;;;;;;;;;;;;;;;4789775;29;19932;-43
2022/08/26 07:33:52;;;;;;;;;;;;;;;;;;4789696;29;19948;-44
2022/08/26 07:36:20;;;;;;;;;;;;;;;;;;4790471;30;19926;-45
2022/08/26 07:38:48;;;;;;;;;;;;;;;;;;4790461;30;19926;-44
2022/08/26 07:41:16;;;;;;;;;;;;;;;;;;4790231;29;20020;-45
2022/08/26 07:43:44;;;;;;;;;;;;;;;;;;4790393;29;19933;-44
2022/08/26 07:46:18;;;;;;;;;;;;;;;;;;4790531;29;20586;-46
2022/08/26 07:48:47;;;;;;;;;;;;;;;;;;4786141;29;19926;-44
2022/08/26 07:51:15;;;;;;;;;;;;;;;;;;4770013;29;19965;-44
2022/08/26 07:53:42;;;;;;;;;;;;;;;;;;4770677;30;19934;-44
2022/08/26 07:56:10;;;;;;;;;;;;;;;;;;4771711;30;20012;-46
2022/08/26 07:58:37;;;;;;;;;;;;;;;;;;4772133;30;19948;-45
2022/08/26 08:01:07;;;;;;;;;;;;;;;;;;4772174;30;20060;-45
2022/08/26 08:03:34;;;;;;;;;;;;;;;;;;4771889;29;19926;-46
2022/08/26 08:06:01;;;;;;;;;;;;;;;;;;4772009;30;20016;-46
2022/08/26 08:08:28;;;;;;;;;;;;;;;;;;4771972;30;19926;-45
2022/08/26 08:10:56;;;;;;;;;;;;;;;;;;4771606;30;19933;-44
2022/08/26 08:13:23;;;;;;;;;;;;;;;;;;4770113;29;19926;-45
2022/08/26 08:15:50;;;;;;;;;;;;;;;;;;4770888;30;19965;-44
2022/08/26 08:18:18;;;;;;;;;;;;;;;;;;4771675;30;20693;-44
2022/08/26 08:20:46;;;;;;;;;;;;;;;;;;4786305;30;19931;-44
2022/08/26 08:23:25;;;;;;;;;;;;;;;;;;4789220;29;19929;-45
2022/08/26 08:25:59;;;;;;;;;;;;;;;;;;4790063;29;19980;-45
2022/08/26 08:28:26;;;;;;;;;;;;;;;;;;4789458;29;19932;-44
2022/08/26 08:30:54;;;;;;;;;;;;;;;;;;4789163;29;19930;-46
2022/08/26 08:33:22;;;;;;;;;;;;;;;;;;4789359;29;19986;-45
2022/08/26 08:35:49;;;;;;;;;;;;;;;;;;4789487;29;19976;-47
2022/08/26 08:38:16;;;;;;;;;;;;;;;;;;4789683;29;19968;-44
2022/08/26 08:40:45;;;;;;;;;;;;;;;;;;4788592;29;20466;-44
2022/08/26 08:43:30;;;;;;;;;;;;;;;;;;4789131;29;19936;-46
2022/08/26 08:46:02;;;;;;;;;;;;;;;;;;4789255;29;19951;-48
2022/08/26 08:48:32;;;;;;;;;;;;;;;;;;4789249;29;19925;-45
2022/08/26 08:51:22;;;;;;;;;;;;;;;;;;4788515;30;19926;-50
2022/08/26 08:53:52;;;;;;;;;;;;;;;;;;4785905;29;19961;-47
2022/08/26 08:56:46;;;;;;;;;;;;;;;;;;4788886;29;19925;-45
2022/08/26 08:59:19;;;;;;;;;;;;;;;;;;4780985;29;19974;-46
2022/08/26 09:01:48;;;;;;;;;;;;;;;;;;4788144;30;20369;-45
2022/08/26 09:04:33;;;;;;;;;;;;;;;;;;4789450;29;19925;-47
2022/08/26 09:07:01;;;;;;;;;;;;;;;;;;4788782;30;19929;-47
2022/08/26 09:09:44;;;;;;;;;;;;;;;;;;4802053;29;20402;-45
2022/08/26 09:12:14;;;;;;;;;;;;;;;;;;4788687;30;20153;-49
2022/08/26 09:14:42;;;;;;;;;;;;;;;;;;4788976;30;19926;-50
2022/08/26 09:17:18;;;;;;;;;;;;;;;;;;4788102;30;19929;-46
2022/08/26 09:19:48;;;;;;;;;;;;;;;;;;4789111;29;19925;-44
2022/08/26 09:22:29;;;;;;;;;;;;;;;;;;4788729;29;20350;-45
2022/08/26 09:24:56;;;;;;;;;;;;;;;;;;4787122;29;19978;-46
2022/08/26 09:27:39;;;;;;;;;;;;;;;;;;4787261;29;20274;-47
2022/08/26 09:30:07;;;;;;;;;;;;;;;;;;4787786;30;20008;-46
2022/08/26 09:32:37;;;;;;;;;;;;;;;;;;4788420;29;20378;-50
2022/08/26 09:35:07;;;;;;;;;;;;;;;;;;4788139;29;20391;-43
2022/08/26 09:37:43;;;;;;;;;;;;;;;;;;4788143;29;20316;-47
2022/08/26 09:40:26;;;;;;;;;;;;;;;;;;4787182;29;19929;-45
2022/08/26 09:43:08;;;;;;;;;;;;;;;;;;4788274;29;19929;-48
2022/08/26 09:45:37;;;;;;;;;;;;;;;;;;4788103;29;19925;-45
2022/08/26 09:48:05;;;;;;;;;;;;;;;;;;4786658;29;20401;-47
2022/08/26 09:50:35;;;;;;;;;;;;;;;;;;4788104;30;19979;-47
2022/08/26 09:53:29;;;;;;;;;;;;;;;;;;4787320;29;20016;-46
2022/08/26 09:56:15;;;;;;;;;;;;;;;;;;4787062;29;19926;-46
2022/08/26 09:58:43;;;;;;;;;;;;;;;;;;4788051;29;19948;-45
2022/08/26 10:01:23;;;;;;;;;;;;;;;;;;4787570;29;20616;-42
2022/08/26 10:03:50;;;;;;;;;;;;;;;;;;4787618;29;20397;-45
2022/08/26 10:06:18;;;;;;;;;;;;;;;;;;4788230;30;19925;-46
2022/08/26 10:08:59;;;;;;;;;;;;;;;;;;4787793;29;19982;-45
2022/08/26 10:11:41;;;;;;;;;;;;;;;;;;4787212;29;20378;-46
2022/08/26 10:14:12;;;;;;;;;;;;;;;;;;4801638;29;19952;-46
2022/08/26 10:16:39;;;;;;;;;;;;;;;;;;4787170;30;19929;-44
2022/08/26 10:19:08;;;;;;;;;;;;;;;;;;4787565;29;20305;-44
2022/08/26 10:21:41;;;;;;;;;;;;;;;;;;4787598;29;20037;-45
2022/08/26 10:24:10;;;;;;;;;;;;;;;;;;4787316;30;20016;-45
2022/08/26 10:26:43;;;;;;;;;;;;;;;;;;4787213;29;19983;-45
2022/08/26 10:29:20;;;;;;;;;;;;;;;;;;4787191;29;20406;-44
2022/08/26 10:31:50;;;;;;;;;;;;;;;;;;4787527;29;19952;-44
2022/08/26 10:34:18;;;;;;;;;;;;;;;;;;4787123;30;20390;-45
2022/08/26 10:36:56;;;;;;;;;;;;;;;;;;4787528;29;19932;-44
2022/08/26 10:40:17;;;;;;;;;;;;;;;;;;4787525;29;20442;-44
2022/08/26 10:42:51;;;;;;;;;;;;;;;;;;4766981;30;20024;-45
2022/08/26 10:45:24;;;;;;;;;;;;;;;;;;4784775;30;19926;-44
2022/08/26 10:47:56;;;;;;;;;;;;;;;;;;4800921;29;20016;-49
2022/08/26 10:50:30;;;;;;;;;;;;;;;;;;4786706;29;19975;-43
2022/08/26 10:52:57;;;;;;;;;;;;;;;;;;4786510;29;19925;-48
2022/08/26 10:55:41;;;;;;;;;;;;;;;;;;4787084;30;20356;-44
2022/08/26 10:58:19;;;;;;;;;;;;;;;;;;4786634;30;19925;-45
2022/08/26 11:04:03;;;;;;;;;;;;;;;;;;4786350;30;20386;-45
2022/08/26 11:06:31;;;;;;;;;;;;;;;;;;4786681;29;19925;-44
2022/08/26 11:09:00;;;;;;;;;;;;;;;;;;4786220;29;20287;-44
2022/08/26 11:11:39;;;;;;;;;;;;;;;;;;4786787;29;20462;-44
2022/08/26 11:14:25;;;;;;;;;;;;;;;;;;4786485;30;19933;-44
2022/08/26 11:16:55;;;;;;;;;;;;;;;;;;4786224;29;19925;-44
2022/08/26 11:19:28;;;;;;;;;;;;;;;;;;4786547;29;19965;-44
2022/08/26 11:22:24;;;;;;;;;;;;;;;;;;4786933;30;19932;-47
2022/08/26 11:24:51;;;;;;;;;;;;;;;;;;4786453;30;19983;-45
2022/08/26 11:27:25;;;;;;;;;;;;;;;;;;4786771;29;19980;-43
2022/08/26 11:29:56;;;;;;;;;;;;;;;;;;4785483;30;19926;-44
2022/08/26 11:32:26;;;;;;;;;;;;;;;;;;4786120;30;19945;-47
2022/08/26 11:34:56;;;;;;;;;;;;;;;;;;4786634;30;20018;-43
2022/08/26 11:37:31;;;;;;;;;;;;;;;;;;4786301;29;19929;-44
2022/08/26 11:40:01;;;;;;;;;;;;;;;;;;4785891;29;19929;-44
2022/08/26 11:42:37;;;;;;;;;;;;;;;;;;4786498;29;19933;-43
2022/08/26 11:45:25;;;;;;;;;;;;;;;;;;4799779;29;19933;-50
2022/08/26 11:47:53;;;;;;;;;;;;;;;;;;4786221;29;20305;-44
2022/08/26 11:50:24;;;;;;;;;;;;;;;;;;4786471;29;20312;-45
2022/08/26 11:53:00;;;;;;;;;;;;;;;;;;4785635;29;19926;-44
2022/08/26 11:55:29;;;;;;;;;;;;;;;;;;4774443;29;20013;-45
2022/08/26 11:57:59;;;;;;;;;;;;;;;;;;4768376;30;20024;-44
2022/08/26 12:00:29;;;;;;;;;;;;;;;;;;4767904;29;19926;-44
2022/08/26 12:03:01;;;;;;;;;;;;;;;;;;4767340;30;19926;-45
2022/08/26 12:05:30;;;;;;;;;;;;;;;;;;4768280;30;19932;-44
2022/08/26 12:08:08;;;;;;;;;;;;;;;;;;4767877;30;19933;-45
2022/08/26 12:10:36;;;;;;;;;;;;;;;;;;4766263;30;19926;-43
2022/08/26 12:13:05;;;;;;;;;;;;;;;;;;4768114;29;19930;-43
2022/08/26 12:15:32;;;;;;;;;;;;;;;;;;4769173;29;19925;-44
2022/08/26 12:18:16;;;;;;;;;;;;;;;;;;4771670;30;19983;-44
2022/08/26 12:20:47;;;;;;;;;;;;;;;;;;4786041;30;19929;-47
2022/08/26 12:23:21;;;;;;;;;;;;;;;;;;4789040;29;19982;-44
2022/08/26 12:25:50;;;;;;;;;;;;;;;;;;4789179;29;19926;-46
2022/08/26 12:28:18;;;;;;;;;;;;;;;;;;4788698;29;19925;-45
2022/08/26 12:30:59;;;;;;;;;;;;;;;;;;4788122;29;19948;-44
2022/08/26 12:33:27;;;;;;;;;;;;;;;;;;4789231;29;19929;-45
2022/08/26 12:35:54;;;;;;;;;;;;;;;;;;4789166;29;19929;-42
2022/08/26 12:38:23;;;;;;;;;;;;;;;;;;4789480;29;20012;-45
2022/08/26 12:40:50;;;;;;;;;;;;;;;;;;4792134;29;20390;-43
2022/08/26 12:43:36;;;;;;;;;;;;;;;;;;4771256;29;19933;-43
2022/08/26 12:46:04;;;;;;;;;;;;;;;;;;4771431;30;20379;-44
2022/08/26 12:48:37;;;;;;;;;;;;;;;;;;4771571;30;20008;-45
2022/08/26 12:51:24;;;;;;;;;;;;;;;;;;4771043;29;20403;-45
2022/08/26 12:53:51;;;;;;;;;;;;;;;;;;4770940;30;19926;-45
2022/08/26 12:56:32;;;;;;;;;;;;;;;;;;4771424;29;20349;-45
2022/08/26 12:59:04;;;;;;;;;;;;;;;;;;4770884;29;19973;-44
2022/08/26 13:01:37;;;;;;;;;;;;;;;;;;4771373;29;19929;-45
2022/08/26 13:04:05;;;;;;;;;;;;;;;;;;4771116;30;20415;-44
2022/08/26 13:06:34;;;;;;;;;;;;;;;;;;4771216;30;19934;-47
2022/08/26 13:09:24;;;;;;;;;;;;;;;;;;4770970;29;20029;-44
2022/08/26 13:11:51;;;;;;;;;;;;;;;;;;4769800;30;19949;-45
2022/08/26 13:14:23;;;;;;;;;;;;;;;;;;4771045;29;19957;-44
2022/08/26 13:16:51;;;;;;;;;;;;;;;;;;4770914;29;19926;-44
2022/08/26 13:19:20;;;;;;;;;;;;;;;;;;4774870;30;20373;-44
2022/08/26 13:21:51;;;;;;;;;;;;;;;;;;4788924;29;19925;-46
2022/08/26 13:24:20;;;;;;;;;;;;;;;;;;4788742;29;19975;-43
2022/08/26 13:26:48;;;;;;;;;;;;;;;;;;4788482;29;19933;-44
2022/08/26 13:29:16;;;;;;;;;;;;;;;;;;4788671;29;19925;-44
2022/08/26 13:31:43;;;;;;;;;;;;;;;;;;4788665;29;19926;-46
2022/08/26 13:34:13;;;;;;;;;;;;;;;;;;4801626;29;19930;-45
2022/08/26 13:36:43;;;;;;;;;;;;;;;;;;4788292;29;19936;-44
2022/08/26 13:39:11;;;;;;;;;;;;;;;;;;4788012;30;19936;-45
2022/08/26 13:41:38;;;;;;;;;;;;;;;;;;4788351;30;19969;-46
2022/08/26 13:44:06;;;;;;;;;;;;;;;;;;4787809;29;19929;-47
2022/08/26 13:46:34;;;;;;;;;;;;;;;;;;4788355;29;19929;-49
2022/08/26 13:49:03;;;;;;;;;;;;;;;;;;4788138;29;19994;-45
2022/08/26 13:51:30;;;;;;;;;;;;;;;;;;4788302;30;19925;-45
2022/08/26 13:53:58;;;;;;;;;;;;;;;;;;4788382;30;20078;-45
2022/08/26 13:56:28;;;;;;;;;;;;;;;;;;4787472;29;19925;-45
2022/08/26 13:58:59;;;;;;;;;;;;;;;;;;4801662;29;20517;-45
2022/08/26 14:01:28;;;;;;;;;;;;;;;;;;4787610;29;19925;-45
2022/08/26 14:03:55;;;;;;;;;;;;;;;;;;4788116;29;19931;-44
2022/08/26 14:06:23;;;;;;;;;;;;;;;;;;4788044;29;19925;-46
2022/08/26 14:08:53;;;;;;;;;;;;;;;;;;4788088;29;20306;-47
2022/08/26 14:11:23;;;;;;;;;;;;;;;;;;4787880;30;20067;-45
2022/08/26 14:13:51;;;;;;;;;;;;;;;;;;4786424;29;19926;-44
2022/08/26 14:16:23;;;;;;;;;;;;;;;;;;4788000;29;19932;-47
2022/08/26 14:18:50;;;;;;;;;;;;;;;;;;4801685;29;19948;-47
2022/08/26 14:21:17;;;;;;;;;;;;;;;;;;4787486;29;19976;-45
2022/08/26 14:23:45;;;;;;;;;;;;;;;;;;4787740;29;20438;-47
2022/08/26 14:26:12;;;;;;;;;;;;;;;;;;4787602;29;20351;-52
2022/08/26 14:28:46;;;;;;;;;;;;;;;;;;4787772;29;20542;-46
2022/08/26 14:31:14;;;;;;;;;;;;;;;;;;4787415;29;19934;-44
2022/08/26 14:33:41;;;;;;;;;;;;;;;;;;4787560;30;19929;-43
2022/08/26 14:36:27;;;;;;;;;;;;;;;;;;4787053;29;19988;-45
2022/08/26 14:38:55;;;;;;;;;;;;;;;;;;4786711;29;20069;-44
2022/08/26 14:41:25;;;;;;;;;;;;;;;;;;4787256;30;19932;-45
2022/08/26 14:43:56;;;;;;;;;;;;;;;;;;4787459;29;20439;-44
2022/08/26 14:46:27;;;;;;;;;;;;;;;;;;4787087;29;19955;-45
2022/08/26 14:48:56;;;;;;;;;;;;;;;;;;4787157;29;19932;-43
2022/08/26 14:51:26;;;;;;;;;;;;;;;;;;4787012;29;19958;-52
2022/08/26 14:54:12;;;;;;;;;;;;;;;;;;4787184;29;20328;-44
2022/08/26 14:56:39;;;;;;;;;;;;;;;;;;4786685;30;19926;-45
2022/08/26 14:59:06;;;;;;;;;;;;;;;;;;4787248;30;19935;-44
2022/08/26 15:01:33;;;;;;;;;;;;;;;;;;4786931;30;19965;-45
2022/08/26 15:04:01;;;;;;;;;;;;;;;;;;4786847;29;20376;-46
2022/08/26 15:06:30;;;;;;;;;;;;;;;;;;4787181;29;20016;-44
2022/08/26 15:08:58;;;;;;;;;;;;;;;;;;4800308;29;20009;-45
2022/08/26 15:11:25;;;;;;;;;;;;;;;;;;4786647;29;19986;-45
2022/08/26 15:13:53;;;;;;;;;;;;;;;;;;4786772;29;19932;-46
2022/08/26 15:16:21;;;;;;;;;;;;;;;;;;4787095;29;19926;-50
2022/08/26 15:18:50;;;;;;;;;;;;;;;;;;4787143;30;19925;-45
2022/08/26 15:21:18;;;;;;;;;;;;;;;;;;4786934;30;19975;-45
2022/08/26 15:23:46;;;;;;;;;;;;;;;;;;4786534;29;19926;-47
2022/08/26 15:26:14;;;;;;;;;;;;;;;;;;4786009;29;20121;-50
2022/08/26 15:28:41;;;;;;;;;;;;;;;;;;4781980;29;19968;-46
2022/08/26 15:31:08;;;;;;;;;;;;;;;;;;4768995;30;19925;-44
2022/08/26 15:33:36;;;;;;;;;;;;;;;;;;4769138;30;19926;-46
2022/08/26 15:36:05;;;;;;;;;;;;;;;;;;4768787;29;19925;-43
2022/08/26 15:38:33;;;;;;;;;;;;;;;;;;4768357;30;19932;-45
2022/08/26 15:41:02;;;;;;;;;;;;;;;;;;4768278;30;20298;-45
2022/08/26 15:43:31;;;;;;;;;;;;;;;;;;4768830;30;20355;-48
2022/08/26 15:45:59;;;;;;;;;;;;;;;;;;4768276;29;19930;-46
2022/08/26 15:48:27;;;;;;;;;;;;;;;;;;4768806;30;20370;-46
2022/08/26 15:50:59;;;;;;;;;;;;;;;;;;4770757;30;19929;-46
2022/08/26 15:53:28;;;;;;;;;;;;;;;;;;4772440;29;20024;-44
2022/08/26 15:55:56;;;;;;;;;;;;;;;;;;4785599;30;20376;-47
2022/08/26 15:58:24;;;;;;;;;;;;;;;;;;4771855;30;19933;-44
2022/08/26 16:00:53;;;;;;;;;;;;;;;;;;4772253;29;20352;-44
2022/08/26 16:03:21;;;;;;;;;;;;;;;;;;4771964;30;20311;-49
2022/08/26 16:05:48;;;;;;;;;;;;;;;;;;4772025;30;19929;-45
2022/08/26 16:08:16;;;;;;;;;;;;;;;;;;4771919;30;19926;-46
2022/08/26 16:10:44;;;;;;;;;;;;;;;;;;4772138;29;19930;-45
2022/08/26 16:13:16;;;;;;;;;;;;;;;;;;4771892;30;19926;-45
2022/08/26 16:15:44;;;;;;;;;;;;;;;;;;4772131;30;19926;-45
2022/08/26 16:18:12;;;;;;;;;;;;;;;;;;4771958;29;20667;-46
2022/08/26 16:20:47;;;;;;;;;;;;;;;;;;4785935;29;19952;-45
2022/08/26 16:23:21;;;;;;;;;;;;;;;;;;4789828;29;19957;-45
2022/08/26 16:25:48;;;;;;;;;;;;;;;;;;4789795;29;19968;-43
2022/08/26 16:28:17;;;;;;;;;;;;;;;;;;4789329;29;19930;-44
2022/08/26 16:30:52;;;;;;;;;;;;;;;;;;4789537;30;19930;-43
2022/08/26 16:33:21;;;;;;;;;;;;;;;;;;4777183;30;20379;-45
2022/08/26 16:35:55;;;;;;;;;;;;;;;;;;4771154;30;19980;-45
2022/08/26 16:38:23;;;;;;;;;;;;;;;;;;4771483;30;19975;-44
2022/08/26 16:40:50;;;;;;;;;;;;;;;;;;4771802;30;19925;-44
2022/08/26 16:43:17;;;;;;;;;;;;;;;;;;4771620;30;20466;-47
2022/08/26 16:45:47;;;;;;;;;;;;;;;;;;4771247;29;20080;-45
2022/08/26 16:48:14;;;;;;;;;;;;;;;;;;4785025;29;20409;-44
2022/08/26 16:50:42;;;;;;;;;;;;;;;;;;4770257;30;19929;-42
2022/08/26 16:53:09;;;;;;;;;;;;;;;;;;4771320;29;19929;-46
2022/08/26 16:55:44;;;;;;;;;;;;;;;;;;4771163;29;20892;-44
2022/08/26 16:58:13;;;;;;;;;;;;;;;;;;4770064;29;20016;-43
2022/08/26 17:00:41;;;;;;;;;;;;;;;;;;4770311;29;20298;-44
2022/08/26 17:03:08;;;;;;;;;;;;;;;;;;4770765;30;19926;-47
2022/08/26 17:05:39;;;;;;;;;;;;;;;;;;4770185;30;20405;-40
2022/08/26 17:08:15;;;;;;;;;;;;;;;;;;4771061;29;19929;-42
2022/08/26 17:10:53;;;;;;;;;;;;;;;;;;4770252;29;19926;-46
2022/08/26 17:13:20;;;;;;;;;;;;;;;;;;4771128;30;19925;-46